Current Conditions
Partly Cloudy
Conditions



Pressure
994.92 (hPa) - 29.38 (inHG)
Visibility

10.0 (km) - 6.2 (miles)
   Temperature
8  °C
46°F
5  °C
Dewpoint
82  %
 Humidity
   Wind Speed
29  km/h
16  kts
18  mph
8.0  m/s
   Wind Direction
 240°
West South
West
   Airport Data
EDLV
Location Niederrhein 20 km (12.43 mi)
Metar :EDLV 150750Z 24016G28KT 9999 FEW032 08/05 Q0995
Sun 15th December 08:50 am
   Raw Metar Info
Raw METAR is the most common format in the world for the transmission of observational weather data. It is highly standardized through the International Civil Aviation Organization (ICAO), which allows it to be understood throughout most of the world.
   API Info
Data Provided by
https://www.checkwx.com/weather/EDLV
   © Info
CSS/SVG/PHP scripts were developed by weather34.com for use in the weather34 template © 2015-2019

Guide Info provided by Metar-Wikipedia